<?xml version="1.0" encoding="UTF-8" standalone="no" ?>
<gpx xmlns="http://www.topografix.com/GPX/1/1" xmlns:xsi="http://www.w3.org/2001/XMLSchema-instance" xsi:schemaLocation="http://www.topografix.com/GPX/1/1 http://www.topografix.com/GPX/1/1/gpx.xsd" version="1.1" creator="VisuGPX - https://www.visugpx.com">
  <metadata>
    <name>Rando</name>
  </metadata>
  <trk>
    <name><![CDATA[11799676-29/07/2020 Du lac Blanchemer au lac de Longemer]]></name>
    <trkseg>
      <trkpt lat="48.01738" lon="6.97895">
        <ele>989</ele>
        <time>2020-08-03T12:15:47Z</time>
      </trkpt>
      <trkpt lat="48.01741" lon="6.97886">
        <ele>989</ele>
        <time>2020-08-03T12:15:56Z</time>
      </trkpt>
      <trkpt lat="48.01744" lon="6.9789">
        <ele>989</ele>
        <time>2020-08-03T12:16:01Z</time>
      </trkpt>
      <trkpt lat="48.01735" lon="6.97904">
        <ele>989</ele>
        <time>2020-08-03T12:16:19Z</time>
      </trkpt>
      <trkpt lat="48.01739" lon="6.97907">
        <ele>989</ele>
        <time>2020-08-03T12:16:25Z</time>
      </trkpt>
      <trkpt lat="48.01737" lon="6.97898">
        <ele>989</ele>
        <time>2020-08-03T12:16:33Z</time>
      </trkpt>
      <trkpt lat="48.01745" lon="6.97931">
        <ele>991</ele>
        <time>2020-08-03T12:17:04Z</time>
      </trkpt>
      <trkpt lat="48.01761" lon="6.97951">
        <ele>996</ele>
        <time>2020-08-03T12:17:32Z</time>
      </trkpt>
      <trkpt lat="48.01782" lon="6.97928">
        <ele>996</ele>
        <time>2020-08-03T12:18:07Z</time>
      </trkpt>
      <trkpt lat="48.01793" lon="6.9788">
        <ele>995</ele>
        <time>2020-08-03T12:18:52Z</time>
      </trkpt>
      <trkpt lat="48.01795" lon="6.97847">
        <ele>995</ele>
        <time>2020-08-03T12:19:22Z</time>
      </trkpt>
      <trkpt lat="48.01804" lon="6.97829">
        <ele>996</ele>
        <time>2020-08-03T12:19:42Z</time>
      </trkpt>
      <trkpt lat="48.01809" lon="6.97825">
        <ele>996</ele>
        <time>2020-08-03T12:19:50Z</time>
      </trkpt>
      <trkpt lat="48.01826" lon="6.97835">
        <ele>999</ele>
        <time>2020-08-03T12:20:14Z</time>
      </trkpt>
      <trkpt lat="48.01834" lon="6.97852">
        <ele>1001</ele>
        <time>2020-08-03T12:20:32Z</time>
      </trkpt>
      <trkpt lat="48.01866" lon="6.97884">
        <ele>1006</ele>
        <time>2020-08-03T12:21:24Z</time>
      </trkpt>
      <trkpt lat="48.01884" lon="6.97941">
        <ele>1012</ele>
        <time>2020-08-03T12:22:20Z</time>
      </trkpt>
      <trkpt lat="48.01906" lon="6.97972">
        <ele>1017</ele>
        <time>2020-08-03T12:23:00Z</time>
      </trkpt>
      <trkpt lat="48.01912" lon="6.97997">
        <ele>1020</ele>
        <time>2020-08-03T12:23:24Z</time>
      </trkpt>
      <trkpt lat="48.01914" lon="6.97988">
        <ele>1020</ele>
        <time>2020-08-03T12:23:33Z</time>
      </trkpt>
      <trkpt lat="48.01931" lon="6.97975">
        <ele>1023</ele>
        <time>2020-08-03T12:23:58Z</time>
      </trkpt>
      <trkpt lat="48.0193" lon="6.9798">
        <ele>1023</ele>
        <time>2020-08-03T12:24:03Z</time>
      </trkpt>
      <trkpt lat="48.01936" lon="6.97972">
        <ele>1024</ele>
        <time>2020-08-03T12:24:13Z</time>
      </trkpt>
      <trkpt lat="48.01953" lon="6.97994">
        <ele>1031</ele>
        <time>2020-08-03T12:24:43Z</time>
      </trkpt>
      <trkpt lat="48.01973" lon="6.98038">
        <ele>1039</ele>
        <time>2020-08-03T12:25:31Z</time>
      </trkpt>
      <trkpt lat="48.01976" lon="6.98035">
        <ele>1040</ele>
        <time>2020-08-03T12:25:36Z</time>
      </trkpt>
      <trkpt lat="48.01973" lon="6.9804">
        <ele>1039</ele>
        <time>2020-08-03T12:25:42Z</time>
      </trkpt>
      <trkpt lat="48.01984" lon="6.98053">
        <ele>1042</ele>
        <time>2020-08-03T12:26:00Z</time>
      </trkpt>
      <trkpt lat="48.01991" lon="6.98052">
        <ele>1044</ele>
        <time>2020-08-03T12:26:10Z</time>
      </trkpt>
      <trkpt lat="48.02001" lon="6.98035">
        <ele>1046</ele>
        <time>2020-08-03T12:26:30Z</time>
      </trkpt>
      <trkpt lat="48.02" lon="6.9802">
        <ele>1045</ele>
        <time>2020-08-03T12:26:44Z</time>
      </trkpt>
      <trkpt lat="48.02006" lon="6.98023">
        <ele>1048</ele>
        <time>2020-08-03T12:26:52Z</time>
      </trkpt>
      <trkpt lat="48.02011" lon="6.98029">
        <ele>1050</ele>
        <time>2020-08-03T12:27:01Z</time>
      </trkpt>
      <trkpt lat="48.02011" lon="6.98045">
        <ele>1050</ele>
        <time>2020-08-03T12:27:15Z</time>
      </trkpt>
      <trkpt lat="48.02018" lon="6.98073">
        <ele>1052</ele>
        <time>2020-08-03T12:27:41Z</time>
      </trkpt>
      <trkpt lat="48.0203" lon="6.98098">
        <ele>1057</ele>
        <time>2020-08-03T12:28:09Z</time>
      </trkpt>
      <trkpt lat="48.02039" lon="6.98106">
        <ele>1060</ele>
        <time>2020-08-03T12:28:23Z</time>
      </trkpt>
      <trkpt lat="48.02043" lon="6.98124">
        <ele>1062</ele>
        <time>2020-08-03T12:28:40Z</time>
      </trkpt>
      <trkpt lat="48.02062" lon="6.98158">
        <ele>1065</ele>
        <time>2020-08-03T12:29:19Z</time>
      </trkpt>
      <trkpt lat="48.02083" lon="6.98175">
        <ele>1066</ele>
        <time>2020-08-03T12:29:51Z</time>
      </trkpt>
      <trkpt lat="48.02107" lon="6.98208">
        <ele>1072</ele>
        <time>2020-08-03T12:30:35Z</time>
      </trkpt>
      <trkpt lat="48.02136" lon="6.98231">
        <ele>1075</ele>
        <time>2020-08-03T12:31:19Z</time>
      </trkpt>
      <trkpt lat="48.02183" lon="6.9831">
        <ele>1078</ele>
        <time>2020-08-03T12:32:53Z</time>
      </trkpt>
      <trkpt lat="48.02215" lon="6.98343">
        <ele>1083</ele>
        <time>2020-08-03T12:33:45Z</time>
      </trkpt>
      <trkpt lat="48.0224" lon="6.98359">
        <ele>1087</ele>
        <time>2020-08-03T12:34:21Z</time>
      </trkpt>
      <trkpt lat="48.02259" lon="6.98377">
        <ele>1090</ele>
        <time>2020-08-03T12:34:51Z</time>
      </trkpt>
      <trkpt lat="48.0228" lon="6.98419">
        <ele>1094</ele>
        <time>2020-08-03T12:35:38Z</time>
      </trkpt>
      <trkpt lat="48.02329" lon="6.98481">
        <ele>1101</ele>
        <time>2020-08-03T12:37:04Z</time>
      </trkpt>
      <trkpt lat="48.02352" lon="6.98494">
        <ele>1102</ele>
        <time>2020-08-03T12:37:36Z</time>
      </trkpt>
      <trkpt lat="48.02358" lon="6.98494">
        <ele>1102</ele>
        <time>2020-08-03T12:37:44Z</time>
      </trkpt>
      <trkpt lat="48.02366" lon="6.98484">
        <ele>1103</ele>
        <time>2020-08-03T12:37:58Z</time>
      </trkpt>
      <trkpt lat="48.02369" lon="6.9849">
        <ele>1103</ele>
        <time>2020-08-03T12:38:05Z</time>
      </trkpt>
      <trkpt lat="48.02392" lon="6.98507">
        <ele>1104</ele>
        <time>2020-08-03T12:38:39Z</time>
      </trkpt>
      <trkpt lat="48.02419" lon="6.98511">
        <ele>1105</ele>
        <time>2020-08-03T12:39:15Z</time>
      </trkpt>
      <trkpt lat="48.02445" lon="6.98489">
        <ele>1105</ele>
        <time>2020-08-03T12:39:55Z</time>
      </trkpt>
      <trkpt lat="48.0246" lon="6.9842">
        <ele>1112</ele>
        <time>2020-08-03T12:41:00Z</time>
      </trkpt>
      <trkpt lat="48.02474" lon="6.98392">
        <ele>1113</ele>
        <time>2020-08-03T12:41:31Z</time>
      </trkpt>
      <trkpt lat="48.025" lon="6.98397">
        <ele>1111</ele>
        <time>2020-08-03T12:42:06Z</time>
      </trkpt>
      <trkpt lat="48.0251" lon="6.98404">
        <ele>1113</ele>
        <time>2020-08-03T12:42:21Z</time>
      </trkpt>
      <trkpt lat="48.02545" lon="6.98449">
        <ele>1114</ele>
        <time>2020-08-03T12:43:23Z</time>
      </trkpt>
      <trkpt lat="48.02561" lon="6.98461">
        <ele>1114</ele>
        <time>2020-08-03T12:43:46Z</time>
      </trkpt>
      <trkpt lat="48.02593" lon="6.98507">
        <ele>1112</ele>
        <time>2020-08-03T12:44:46Z</time>
      </trkpt>
      <trkpt lat="48.02625" lon="6.98524">
        <ele>1118</ele>
        <time>2020-08-03T12:45:31Z</time>
      </trkpt>
      <trkpt lat="48.02626" lon="6.98518">
        <ele>1119</ele>
        <time>2020-08-03T12:45:37Z</time>
      </trkpt>
      <trkpt lat="48.02633" lon="6.98539">
        <ele>1118</ele>
        <time>2020-08-03T12:45:58Z</time>
      </trkpt>
      <trkpt lat="48.02645" lon="6.98548">
        <ele>1119</ele>
        <time>2020-08-03T12:46:15Z</time>
      </trkpt>
      <trkpt lat="48.02666" lon="6.98583">
        <ele>1117</ele>
        <time>2020-08-03T12:46:57Z</time>
      </trkpt>
      <trkpt lat="48.02714" lon="6.98615">
        <ele>1118</ele>
        <time>2020-08-03T12:48:08Z</time>
      </trkpt>
      <trkpt lat="48.02754" lon="6.98636">
        <ele>1116</ele>
        <time>2020-08-03T12:49:04Z</time>
      </trkpt>
      <trkpt lat="48.0279" lon="6.98642">
        <ele>1115</ele>
        <time>2020-08-03T12:49:52Z</time>
      </trkpt>
      <trkpt lat="48.02808" lon="6.98636">
        <ele>1115</ele>
        <time>2020-08-03T12:50:17Z</time>
      </trkpt>
      <trkpt lat="48.02824" lon="6.98615">
        <ele>1116</ele>
        <time>2020-08-03T12:50:45Z</time>
      </trkpt>
      <trkpt lat="48.02854" lon="6.9859">
        <ele>1111</ele>
        <time>2020-08-03T12:51:31Z</time>
      </trkpt>
      <trkpt lat="48.02862" lon="6.98575">
        <ele>1111</ele>
        <time>2020-08-03T12:51:48Z</time>
      </trkpt>
      <trkpt lat="48.02891" lon="6.98441">
        <ele>1115</ele>
        <time>2020-08-03T12:53:54Z</time>
      </trkpt>
      <trkpt lat="48.02904" lon="6.98404">
        <ele>1112</ele>
        <time>2020-08-03T12:54:31Z</time>
      </trkpt>
      <trkpt lat="48.02907" lon="6.98376">
        <ele>1112</ele>
        <time>2020-08-03T12:54:57Z</time>
      </trkpt>
      <trkpt lat="48.02926" lon="6.9835">
        <ele>1107</ele>
        <time>2020-08-03T12:55:31Z</time>
      </trkpt>
      <trkpt lat="48.02934" lon="6.98314">
        <ele>1109</ele>
        <time>2020-08-03T12:56:05Z</time>
      </trkpt>
      <trkpt lat="48.02947" lon="6.98286">
        <ele>1110</ele>
        <time>2020-08-03T12:56:35Z</time>
      </trkpt>
      <trkpt lat="48.02949" lon="6.98247">
        <ele>1114</ele>
        <time>2020-08-03T12:57:10Z</time>
      </trkpt>
      <trkpt lat="48.02954" lon="6.98229">
        <ele>1114</ele>
        <time>2020-08-03T12:57:28Z</time>
      </trkpt>
      <trkpt lat="48.02967" lon="6.98207">
        <ele>1111</ele>
        <time>2020-08-03T12:57:54Z</time>
      </trkpt>
      <trkpt lat="48.02987" lon="6.98145">
        <ele>1108</ele>
        <time>2020-08-03T12:58:55Z</time>
      </trkpt>
      <trkpt lat="48.0299" lon="6.9808">
        <ele>1113</ele>
        <time>2020-08-03T12:59:53Z</time>
      </trkpt>
      <trkpt lat="48.03" lon="6.98051">
        <ele>1113</ele>
        <time>2020-08-03T13:00:23Z</time>
      </trkpt>
      <trkpt lat="48.03005" lon="6.97998">
        <ele>1119</ele>
        <time>2020-08-03T13:01:10Z</time>
      </trkpt>
      <trkpt lat="48.03017" lon="6.97998">
        <ele>1114</ele>
        <time>2020-08-03T13:01:26Z</time>
      </trkpt>
      <trkpt lat="48.0303" lon="6.97988">
        <ele>1110</ele>
        <time>2020-08-03T13:01:46Z</time>
      </trkpt>
      <trkpt lat="48.0303" lon="6.97991">
        <ele>1110</ele>
        <time>2020-08-03T13:01:49Z</time>
      </trkpt>
      <trkpt lat="48.03029" lon="6.97986">
        <ele>1111</ele>
        <time>2020-08-03T13:01:53Z</time>
      </trkpt>
      <trkpt lat="48.03028" lon="6.98">
        <ele>1109</ele>
        <time>2020-08-03T13:02:06Z</time>
      </trkpt>
      <trkpt lat="48.03031" lon="6.9799">
        <ele>1109</ele>
        <time>2020-08-03T13:02:16Z</time>
      </trkpt>
      <trkpt lat="48.03043" lon="6.97984">
        <ele>1105</ele>
        <time>2020-08-03T13:02:32Z</time>
      </trkpt>
      <trkpt lat="48.03056" lon="6.97959">
        <ele>1104</ele>
        <time>2020-08-03T13:03:01Z</time>
      </trkpt>
      <trkpt lat="48.03067" lon="6.97955">
        <ele>1100</ele>
        <time>2020-08-03T13:03:16Z</time>
      </trkpt>
      <trkpt lat="48.03077" lon="6.97924">
        <ele>1101</ele>
        <time>2020-08-03T13:03:46Z</time>
      </trkpt>
      <trkpt lat="48.03084" lon="6.97916">
        <ele>1100</ele>
        <time>2020-08-03T13:03:58Z</time>
      </trkpt>
      <trkpt lat="48.03087" lon="6.97917">
        <ele>1099</ele>
        <time>2020-08-03T13:04:02Z</time>
      </trkpt>
      <trkpt lat="48.0309" lon="6.97907">
        <ele>1100</ele>
        <time>2020-08-03T13:04:12Z</time>
      </trkpt>
      <trkpt lat="48.03107" lon="6.97895">
        <ele>1098</ele>
        <time>2020-08-03T13:04:37Z</time>
      </trkpt>
      <trkpt lat="48.03126" lon="6.97889">
        <ele>1093</ele>
        <time>2020-08-03T13:05:03Z</time>
      </trkpt>
      <trkpt lat="48.03136" lon="6.9788">
        <ele>1092</ele>
        <time>2020-08-03T13:05:19Z</time>
      </trkpt>
      <trkpt lat="48.03126" lon="6.97898">
        <ele>1091</ele>
        <time>2020-08-03T13:05:40Z</time>
      </trkpt>
      <trkpt lat="48.03127" lon="6.97907">
        <ele>1088</ele>
        <time>2020-08-03T13:05:48Z</time>
      </trkpt>
      <trkpt lat="48.03109" lon="6.97937">
        <ele>1088</ele>
        <time>2020-08-03T13:06:24Z</time>
      </trkpt>
      <trkpt lat="48.03094" lon="6.97983">
        <ele>1084</ele>
        <time>2020-08-03T13:07:09Z</time>
      </trkpt>
      <trkpt lat="48.0308" lon="6.98045">
        <ele>1079</ele>
        <time>2020-08-03T13:08:08Z</time>
      </trkpt>
      <trkpt lat="48.03069" lon="6.98065">
        <ele>1081</ele>
        <time>2020-08-03T13:08:31Z</time>
      </trkpt>
      <trkpt lat="48.03068" lon="6.98074">
        <ele>1080</ele>
        <time>2020-08-03T13:08:39Z</time>
      </trkpt>
      <trkpt lat="48.03053" lon="6.98086">
        <ele>1085</ele>
        <time>2020-08-03T13:09:02Z</time>
      </trkpt>
      <trkpt lat="48.03045" lon="6.98099">
        <ele>1087</ele>
        <time>2020-08-03T13:09:17Z</time>
      </trkpt>
      <trkpt lat="48.0304" lon="6.98132">
        <ele>1087</ele>
        <time>2020-08-03T13:09:48Z</time>
      </trkpt>
      <trkpt lat="48.03039" lon="6.98188">
        <ele>1083</ele>
        <time>2020-08-03T13:10:38Z</time>
      </trkpt>
      <trkpt lat="48.03045" lon="6.98198">
        <ele>1080</ele>
        <time>2020-08-03T13:10:50Z</time>
      </trkpt>
      <trkpt lat="48.03047" lon="6.98213">
        <ele>1079</ele>
        <time>2020-08-03T13:11:03Z</time>
      </trkpt>
      <trkpt lat="48.03049" lon="6.98207">
        <ele>1078</ele>
        <time>2020-08-03T13:11:09Z</time>
      </trkpt>
      <trkpt lat="48.03045" lon="6.98229">
        <ele>1079</ele>
        <time>2020-08-03T13:11:30Z</time>
      </trkpt>
      <trkpt lat="48.03032" lon="6.98261">
        <ele>1082</ele>
        <time>2020-08-03T13:12:03Z</time>
      </trkpt>
      <trkpt lat="48.0304" lon="6.98258">
        <ele>1079</ele>
        <time>2020-08-03T13:12:14Z</time>
      </trkpt>
      <trkpt lat="48.03038" lon="6.98273">
        <ele>1079</ele>
        <time>2020-08-03T13:12:28Z</time>
      </trkpt>
      <trkpt lat="48.03042" lon="6.98283">
        <ele>1077</ele>
        <time>2020-08-03T13:12:38Z</time>
      </trkpt>
      <trkpt lat="48.03058" lon="6.98282">
        <ele>1071</ele>
        <time>2020-08-03T13:12:59Z</time>
      </trkpt>
      <trkpt lat="48.03042" lon="6.98331">
        <ele>1075</ele>
        <time>2020-08-03T13:13:48Z</time>
      </trkpt>
      <trkpt lat="48.03046" lon="6.98349">
        <ele>1072</ele>
        <time>2020-08-03T13:14:05Z</time>
      </trkpt>
      <trkpt lat="48.03061" lon="6.98343">
        <ele>1067</ele>
        <time>2020-08-03T13:14:26Z</time>
      </trkpt>
      <trkpt lat="48.03072" lon="6.98388">
        <ele>1062</ele>
        <time>2020-08-03T13:15:09Z</time>
      </trkpt>
      <trkpt lat="48.03085" lon="6.98407">
        <ele>1058</ele>
        <time>2020-08-03T13:15:33Z</time>
      </trkpt>
      <trkpt lat="48.03095" lon="6.98441">
        <ele>1059</ele>
        <time>2020-08-03T13:16:06Z</time>
      </trkpt>
      <trkpt lat="48.03107" lon="6.98454">
        <ele>1060</ele>
        <time>2020-08-03T13:16:26Z</time>
      </trkpt>
      <trkpt lat="48.03126" lon="6.98455">
        <ele>1059</ele>
        <time>2020-08-03T13:16:51Z</time>
      </trkpt>
      <trkpt lat="48.03137" lon="6.98478">
        <ele>1060</ele>
        <time>2020-08-03T13:17:16Z</time>
      </trkpt>
      <trkpt lat="48.0315" lon="6.98493">
        <ele>1061</ele>
        <time>2020-08-03T13:17:38Z</time>
      </trkpt>
      <trkpt lat="48.03151" lon="6.98509">
        <ele>1063</ele>
        <time>2020-08-03T13:17:53Z</time>
      </trkpt>
      <trkpt lat="48.03155" lon="6.98511">
        <ele>1063</ele>
        <time>2020-08-03T13:17:58Z</time>
      </trkpt>
      <trkpt lat="48.03149" lon="6.9852">
        <ele>1065</ele>
        <time>2020-08-03T13:18:10Z</time>
      </trkpt>
      <trkpt lat="48.03162" lon="6.98518">
        <ele>1064</ele>
        <time>2020-08-03T13:18:27Z</time>
      </trkpt>
      <trkpt lat="48.03169" lon="6.98509">
        <ele>1063</ele>
        <time>2020-08-03T13:18:39Z</time>
      </trkpt>
      <trkpt lat="48.03167" lon="6.98503">
        <ele>1062</ele>
        <time>2020-08-03T13:18:45Z</time>
      </trkpt>
      <trkpt lat="48.03185" lon="6.98454">
        <ele>1062</ele>
        <time>2020-08-03T13:19:35Z</time>
      </trkpt>
      <trkpt lat="48.03205" lon="6.98415">
        <ele>1061</ele>
        <time>2020-08-03T13:20:19Z</time>
      </trkpt>
      <trkpt lat="48.0324" lon="6.98374">
        <ele>1064</ele>
        <time>2020-08-03T13:21:18Z</time>
      </trkpt>
      <trkpt lat="48.03257" lon="6.98345">
        <ele>1064</ele>
        <time>2020-08-03T13:21:53Z</time>
      </trkpt>
      <trkpt lat="48.03272" lon="6.98338">
        <ele>1067</ele>
        <time>2020-08-03T13:22:14Z</time>
      </trkpt>
      <trkpt lat="48.03295" lon="6.98261">
        <ele>1065</ele>
        <time>2020-08-03T13:23:29Z</time>
      </trkpt>
      <trkpt lat="48.03325" lon="6.98228">
        <ele>1067</ele>
        <time>2020-08-03T13:24:19Z</time>
      </trkpt>
      <trkpt lat="48.03346" lon="6.98131">
        <ele>1064</ele>
        <time>2020-08-03T13:25:50Z</time>
      </trkpt>
      <trkpt lat="48.03347" lon="6.98096">
        <ele>1063</ele>
        <time>2020-08-03T13:26:21Z</time>
      </trkpt>
      <trkpt lat="48.03354" lon="6.98106">
        <ele>1065</ele>
        <time>2020-08-03T13:26:34Z</time>
      </trkpt>
      <trkpt lat="48.03367" lon="6.98068">
        <ele>1067</ele>
        <time>2020-08-03T13:27:12Z</time>
      </trkpt>
      <trkpt lat="48.0338" lon="6.98005">
        <ele>1066</ele>
        <time>2020-08-03T13:28:11Z</time>
      </trkpt>
      <trkpt lat="48.03392" lon="6.97978">
        <ele>1067</ele>
        <time>2020-08-03T13:28:40Z</time>
      </trkpt>
      <trkpt lat="48.034" lon="6.97905">
        <ele>1063</ele>
        <time>2020-08-03T13:29:46Z</time>
      </trkpt>
      <trkpt lat="48.03422" lon="6.9787">
        <ele>1063</ele>
        <time>2020-08-03T13:30:29Z</time>
      </trkpt>
      <trkpt lat="48.0343" lon="6.97849">
        <ele>1062</ele>
        <time>2020-08-03T13:30:50Z</time>
      </trkpt>
      <trkpt lat="48.03423" lon="6.97832">
        <ele>1058</ele>
        <time>2020-08-03T13:31:08Z</time>
      </trkpt>
      <trkpt lat="48.03408" lon="6.97827">
        <ele>1057</ele>
        <time>2020-08-03T13:31:28Z</time>
      </trkpt>
      <trkpt lat="48.03425" lon="6.97837">
        <ele>1059</ele>
        <time>2020-08-03T13:31:53Z</time>
      </trkpt>
      <trkpt lat="48.03429" lon="6.97835">
        <ele>1060</ele>
        <time>2020-08-03T13:31:58Z</time>
      </trkpt>
      <trkpt lat="48.03437" lon="6.97821">
        <ele>1060</ele>
        <time>2020-08-03T13:32:15Z</time>
      </trkpt>
      <trkpt lat="48.03452" lon="6.9777">
        <ele>1058</ele>
        <time>2020-08-03T13:33:05Z</time>
      </trkpt>
      <trkpt lat="48.03461" lon="6.97764">
        <ele>1058</ele>
        <time>2020-08-03T13:33:18Z</time>
      </trkpt>
      <trkpt lat="48.03483" lon="6.97729">
        <ele>1054</ele>
        <time>2020-08-03T13:34:01Z</time>
      </trkpt>
      <trkpt lat="48.03478" lon="6.97722">
        <ele>1052</ele>
        <time>2020-08-03T13:34:10Z</time>
      </trkpt>
      <trkpt lat="48.03487" lon="6.97711">
        <ele>1050</ele>
        <time>2020-08-03T13:34:25Z</time>
      </trkpt>
      <trkpt lat="48.03487" lon="6.97704">
        <ele>1049</ele>
        <time>2020-08-03T13:34:32Z</time>
      </trkpt>
      <trkpt lat="48.03461" lon="6.97705">
        <ele>1048</ele>
        <time>2020-08-03T13:35:06Z</time>
      </trkpt>
      <trkpt lat="48.03451" lon="6.9772">
        <ele>1050</ele>
        <time>2020-08-03T13:35:25Z</time>
      </trkpt>
      <trkpt lat="48.03434" lon="6.97727">
        <ele>1050</ele>
        <time>2020-08-03T13:35:49Z</time>
      </trkpt>
      <trkpt lat="48.03439" lon="6.97725">
        <ele>1050</ele>
        <time>2020-08-03T13:35:56Z</time>
      </trkpt>
      <trkpt lat="48.03445" lon="6.9771">
        <ele>1048</ele>
        <time>2020-08-03T13:36:11Z</time>
      </trkpt>
      <trkpt lat="48.03453" lon="6.97703">
        <ele>1047</ele>
        <time>2020-08-03T13:36:24Z</time>
      </trkpt>
      <trkpt lat="48.03462" lon="6.97673">
        <ele>1042</ele>
        <time>2020-08-03T13:36:53Z</time>
      </trkpt>
      <trkpt lat="48.03485" lon="6.97645">
        <ele>1034</ele>
        <time>2020-08-03T13:37:32Z</time>
      </trkpt>
      <trkpt lat="48.03497" lon="6.97614">
        <ele>1024</ele>
        <time>2020-08-03T13:38:04Z</time>
      </trkpt>
      <trkpt lat="48.03515" lon="6.97588">
        <ele>1015</ele>
        <time>2020-08-03T13:38:38Z</time>
      </trkpt>
      <trkpt lat="48.03525" lon="6.97577">
        <ele>1011</ele>
        <time>2020-08-03T13:38:54Z</time>
      </trkpt>
      <trkpt lat="48.03549" lon="6.97562">
        <ele>1005</ele>
        <time>2020-08-03T13:39:29Z</time>
      </trkpt>
      <trkpt lat="48.03567" lon="6.97561">
        <ele>1004</ele>
        <time>2020-08-03T13:39:53Z</time>
      </trkpt>
      <trkpt lat="48.03558" lon="6.9756">
        <ele>1004</ele>
        <time>2020-08-03T13:40:05Z</time>
      </trkpt>
      <trkpt lat="48.03557" lon="6.9757">
        <ele>1007</ele>
        <time>2020-08-03T13:40:14Z</time>
      </trkpt>
      <trkpt lat="48.03561" lon="6.97559">
        <ele>1004</ele>
        <time>2020-08-03T13:40:25Z</time>
      </trkpt>
      <trkpt lat="48.03575" lon="6.97557">
        <ele>1002</ele>
        <time>2020-08-03T13:40:44Z</time>
      </trkpt>
      <trkpt lat="48.03578" lon="6.97563">
        <ele>1004</ele>
        <time>2020-08-03T13:40:51Z</time>
      </trkpt>
      <trkpt lat="48.03614" lon="6.97571">
        <ele>1000</ele>
        <time>2020-08-03T13:41:39Z</time>
      </trkpt>
      <trkpt lat="48.03712" lon="6.97574">
        <ele>976</ele>
        <time>2020-08-03T13:43:50Z</time>
      </trkpt>
      <trkpt lat="48.03752" lon="6.97591">
        <ele>969</ele>
        <time>2020-08-03T13:44:46Z</time>
      </trkpt>
      <trkpt lat="48.03805" lon="6.97596">
        <ele>963</ele>
        <time>2020-08-03T13:45:57Z</time>
      </trkpt>
      <trkpt lat="48.0383" lon="6.97609">
        <ele>963</ele>
        <time>2020-08-03T13:46:32Z</time>
      </trkpt>
      <trkpt lat="48.03844" lon="6.97607">
        <ele>963</ele>
        <time>2020-08-03T13:46:51Z</time>
      </trkpt>
      <trkpt lat="48.03866" lon="6.97592">
        <ele>961</ele>
        <time>2020-08-03T13:47:23Z</time>
      </trkpt>
      <trkpt lat="48.03854" lon="6.97574">
        <ele>956</ele>
        <time>2020-08-03T13:47:46Z</time>
      </trkpt>
      <trkpt lat="48.03851" lon="6.97549">
        <ele>952</ele>
        <time>2020-08-03T13:48:08Z</time>
      </trkpt>
      <trkpt lat="48.03823" lon="6.97531">
        <ele>949</ele>
        <time>2020-08-03T13:48:49Z</time>
      </trkpt>
      <trkpt lat="48.03812" lon="6.97508">
        <ele>946</ele>
        <time>2020-08-03T13:49:14Z</time>
      </trkpt>
      <trkpt lat="48.03801" lon="6.97456">
        <ele>939</ele>
        <time>2020-08-03T13:50:03Z</time>
      </trkpt>
      <trkpt lat="48.03795" lon="6.97396">
        <ele>931</ele>
        <time>2020-08-03T13:50:57Z</time>
      </trkpt>
      <trkpt lat="48.03799" lon="6.97359">
        <ele>926</ele>
        <time>2020-08-03T13:51:30Z</time>
      </trkpt>
      <trkpt lat="48.03795" lon="6.97332">
        <ele>923</ele>
        <time>2020-08-03T13:51:55Z</time>
      </trkpt>
      <trkpt lat="48.03803" lon="6.97286">
        <ele>918</ele>
        <time>2020-08-03T13:52:38Z</time>
      </trkpt>
      <trkpt lat="48.03789" lon="6.97238">
        <ele>914</ele>
        <time>2020-08-03T13:53:24Z</time>
      </trkpt>
      <trkpt lat="48.03787" lon="6.97198">
        <ele>912</ele>
        <time>2020-08-03T13:54:00Z</time>
      </trkpt>
      <trkpt lat="48.03778" lon="6.9719">
        <ele>911</ele>
        <time>2020-08-03T13:54:14Z</time>
      </trkpt>
      <trkpt lat="48.0379" lon="6.9719">
        <ele>912</ele>
        <time>2020-08-03T13:54:30Z</time>
      </trkpt>
      <trkpt lat="48.03806" lon="6.97167">
        <ele>912</ele>
        <time>2020-08-03T13:55:00Z</time>
      </trkpt>
      <trkpt lat="48.03829" lon="6.97147">
        <ele>916</ele>
        <time>2020-08-03T13:55:35Z</time>
      </trkpt>
      <trkpt lat="48.03844" lon="6.97165">
        <ele>917</ele>
        <time>2020-08-03T13:56:01Z</time>
      </trkpt>
      <trkpt lat="48.03849" lon="6.97183">
        <ele>917</ele>
        <time>2020-08-03T13:56:18Z</time>
      </trkpt>
      <trkpt lat="48.03867" lon="6.97195">
        <ele>919</ele>
        <time>2020-08-03T13:56:44Z</time>
      </trkpt>
      <trkpt lat="48.03856" lon="6.97216">
        <ele>917</ele>
        <time>2020-08-03T13:57:08Z</time>
      </trkpt>
      <trkpt lat="48.0385" lon="6.97219">
        <ele>916</ele>
        <time>2020-08-03T13:57:17Z</time>
      </trkpt>
      <trkpt lat="48.03893" lon="6.972">
        <ele>923</ele>
        <time>2020-08-03T13:58:17Z</time>
      </trkpt>
      <trkpt lat="48.03885" lon="6.97206">
        <ele>921</ele>
        <time>2020-08-03T13:58:28Z</time>
      </trkpt>
      <trkpt lat="48.03895" lon="6.97218">
        <ele>921</ele>
        <time>2020-08-03T13:58:46Z</time>
      </trkpt>
      <trkpt lat="48.03902" lon="6.97213">
        <ele>922</ele>
        <time>2020-08-03T13:58:56Z</time>
      </trkpt>
      <trkpt lat="48.039" lon="6.97243">
        <ele>918</ele>
        <time>2020-08-03T13:59:23Z</time>
      </trkpt>
      <trkpt lat="48.03896" lon="6.97238">
        <ele>919</ele>
        <time>2020-08-03T13:59:30Z</time>
      </trkpt>
      <trkpt lat="48.03898" lon="6.97231">
        <ele>920</ele>
        <time>2020-08-03T13:59:37Z</time>
      </trkpt>
      <trkpt lat="48.03894" lon="6.9728">
        <ele>918</ele>
        <time>2020-08-03T14:00:21Z</time>
      </trkpt>
      <trkpt lat="48.03908" lon="6.97229">
        <ele>921</ele>
        <time>2020-08-03T14:01:10Z</time>
      </trkpt>
      <trkpt lat="48.03918" lon="6.97218">
        <ele>924</ele>
        <time>2020-08-03T14:01:26Z</time>
      </trkpt>
      <trkpt lat="48.03918" lon="6.97204">
        <ele>926</ele>
        <time>2020-08-03T14:01:39Z</time>
      </trkpt>
      <trkpt lat="48.03915" lon="6.97205">
        <ele>925</ele>
        <time>2020-08-03T14:01:43Z</time>
      </trkpt>
      <trkpt lat="48.03911" lon="6.97199">
        <ele>926</ele>
        <time>2020-08-03T14:01:51Z</time>
      </trkpt>
      <trkpt lat="48.0392" lon="6.97192">
        <ele>929</ele>
        <time>2020-08-03T14:02:04Z</time>
      </trkpt>
      <trkpt lat="48.03943" lon="6.97238">
        <ele>925</ele>
        <time>2020-08-03T14:02:55Z</time>
      </trkpt>
      <trkpt lat="48.03949" lon="6.97241">
        <ele>925</ele>
        <time>2020-08-03T14:03:04Z</time>
      </trkpt>
      <trkpt lat="48.03958" lon="6.9727">
        <ele>924</ele>
        <time>2020-08-03T14:03:32Z</time>
      </trkpt>
      <trkpt lat="48.0398" lon="6.97308">
        <ele>924</ele>
        <time>2020-08-03T14:04:17Z</time>
      </trkpt>
      <trkpt lat="48.03995" lon="6.97322">
        <ele>924</ele>
        <time>2020-08-03T14:04:41Z</time>
      </trkpt>
      <trkpt lat="48.04029" lon="6.97329">
        <ele>922</ele>
        <time>2020-08-03T14:05:27Z</time>
      </trkpt>
      <trkpt lat="48.04055" lon="6.9735">
        <ele>921</ele>
        <time>2020-08-03T14:06:06Z</time>
      </trkpt>
      <trkpt lat="48.04055" lon="6.97361">
        <ele>921</ele>
        <time>2020-08-03T14:06:16Z</time>
      </trkpt>
      <trkpt lat="48.04036" lon="6.97371">
        <ele>923</ele>
        <time>2020-08-03T14:06:43Z</time>
      </trkpt>
      <trkpt lat="48.04018" lon="6.9739">
        <ele>925</ele>
        <time>2020-08-03T14:07:12Z</time>
      </trkpt>
      <trkpt lat="48.04007" lon="6.97408">
        <ele>926</ele>
        <time>2020-08-03T14:07:34Z</time>
      </trkpt>
      <trkpt lat="48.04004" lon="6.97426">
        <ele>928</ele>
        <time>2020-08-03T14:07:50Z</time>
      </trkpt>
      <trkpt lat="48.04014" lon="6.97443">
        <ele>930</ele>
        <time>2020-08-03T14:08:11Z</time>
      </trkpt>
      <trkpt lat="48.04033" lon="6.97463">
        <ele>932</ele>
        <time>2020-08-03T14:08:42Z</time>
      </trkpt>
      <trkpt lat="48.04081" lon="6.97494">
        <ele>934</ele>
        <time>2020-08-03T14:09:51Z</time>
      </trkpt>
      <trkpt lat="48.04122" lon="6.97505">
        <ele>933</ele>
        <time>2020-08-03T14:10:47Z</time>
      </trkpt>
      <trkpt lat="48.04185" lon="6.97538">
        <ele>938</ele>
        <time>2020-08-03T14:12:16Z</time>
      </trkpt>
      <trkpt lat="48.04247" lon="6.97556">
        <ele>940</ele>
        <time>2020-08-03T14:13:40Z</time>
      </trkpt>
      <trkpt lat="48.04286" lon="6.97584">
        <ele>945</ele>
        <time>2020-08-03T14:14:38Z</time>
      </trkpt>
      <trkpt lat="48.04333" lon="6.97593">
        <ele>944</ele>
        <time>2020-08-03T14:15:41Z</time>
      </trkpt>
      <trkpt lat="48.04353" lon="6.97587">
        <ele>940</ele>
        <time>2020-08-03T14:16:09Z</time>
      </trkpt>
      <trkpt lat="48.04385" lon="6.97588">
        <ele>939</ele>
        <time>2020-08-03T14:16:51Z</time>
      </trkpt>
      <trkpt lat="48.04453" lon="6.97579">
        <ele>938</ele>
        <time>2020-08-03T14:18:22Z</time>
      </trkpt>
      <trkpt lat="48.04536" lon="6.97585">
        <ele>946</ele>
        <time>2020-08-03T14:20:13Z</time>
      </trkpt>
      <trkpt lat="48.04612" lon="6.97573">
        <ele>950</ele>
        <time>2020-08-03T14:21:55Z</time>
      </trkpt>
      <trkpt lat="48.04643" lon="6.97561">
        <ele>950</ele>
        <time>2020-08-03T14:22:38Z</time>
      </trkpt>
      <trkpt lat="48.04654" lon="6.97552">
        <ele>948</ele>
        <time>2020-08-03T14:22:55Z</time>
      </trkpt>
      <trkpt lat="48.04679" lon="6.97548">
        <ele>950</ele>
        <time>2020-08-03T14:23:28Z</time>
      </trkpt>
      <trkpt lat="48.04708" lon="6.97531">
        <ele>950</ele>
        <time>2020-08-03T14:24:10Z</time>
      </trkpt>
      <trkpt lat="48.04728" lon="6.97511">
        <ele>951</ele>
        <time>2020-08-03T14:24:42Z</time>
      </trkpt>
      <trkpt lat="48.04731" lon="6.97519">
        <ele>952</ele>
        <time>2020-08-03T14:24:50Z</time>
      </trkpt>
      <trkpt lat="48.04715" lon="6.97553">
        <ele>954</ele>
        <time>2020-08-03T14:25:27Z</time>
      </trkpt>
      <trkpt lat="48.04718" lon="6.97559">
        <ele>955</ele>
        <time>2020-08-03T14:25:34Z</time>
      </trkpt>
      <trkpt lat="48.04767" lon="6.97578">
        <ele>959</ele>
        <time>2020-08-03T14:26:41Z</time>
      </trkpt>
      <trkpt lat="48.04792" lon="6.97603">
        <ele>962</ele>
        <time>2020-08-03T14:27:22Z</time>
      </trkpt>
      <trkpt lat="48.04822" lon="6.97605">
        <ele>961</ele>
        <time>2020-08-03T14:28:02Z</time>
      </trkpt>
      <trkpt lat="48.04852" lon="6.9762">
        <ele>959</ele>
        <time>2020-08-03T14:28:44Z</time>
      </trkpt>
      <trkpt lat="48.04863" lon="6.9762">
        <ele>958</ele>
        <time>2020-08-03T14:28:58Z</time>
      </trkpt>
      <trkpt lat="48.04866" lon="6.97627">
        <ele>957</ele>
        <time>2020-08-03T14:29:06Z</time>
      </trkpt>
      <trkpt lat="48.0489" lon="6.97619">
        <ele>956</ele>
        <time>2020-08-03T14:29:39Z</time>
      </trkpt>
      <trkpt lat="48.04898" lon="6.97626">
        <ele>954</ele>
        <time>2020-08-03T14:29:51Z</time>
      </trkpt>
      <trkpt lat="48.04934" lon="6.97637">
        <ele>950</ele>
        <time>2020-08-03T14:30:40Z</time>
      </trkpt>
      <trkpt lat="48.0494" lon="6.9765">
        <ele>946</ele>
        <time>2020-08-03T14:30:54Z</time>
      </trkpt>
      <trkpt lat="48.04949" lon="6.97656">
        <ele>944</ele>
        <time>2020-08-03T14:31:07Z</time>
      </trkpt>
      <trkpt lat="48.04962" lon="6.97653">
        <ele>945</ele>
        <time>2020-08-03T14:31:25Z</time>
      </trkpt>
      <trkpt lat="48.04976" lon="6.9766">
        <ele>943</ele>
        <time>2020-08-03T14:31:45Z</time>
      </trkpt>
      <trkpt lat="48.04982" lon="6.97658">
        <ele>943</ele>
        <time>2020-08-03T14:31:53Z</time>
      </trkpt>
      <trkpt lat="48.05001" lon="6.97686">
        <ele>937</ele>
        <time>2020-08-03T14:32:28Z</time>
      </trkpt>
      <trkpt lat="48.05036" lon="6.97694">
        <ele>937</ele>
        <time>2020-08-03T14:33:16Z</time>
      </trkpt>
      <trkpt lat="48.05069" lon="6.97727">
        <ele>926</ele>
        <time>2020-08-03T14:34:09Z</time>
      </trkpt>
      <trkpt lat="48.05078" lon="6.97727">
        <ele>926</ele>
        <time>2020-08-03T14:34:21Z</time>
      </trkpt>
      <trkpt lat="48.05081" lon="6.97733">
        <ele>923</ele>
        <time>2020-08-03T14:34:27Z</time>
      </trkpt>
      <trkpt lat="48.05088" lon="6.97732">
        <ele>923</ele>
        <time>2020-08-03T14:34:37Z</time>
      </trkpt>
      <trkpt lat="48.05095" lon="6.97738">
        <ele>921</ele>
        <time>2020-08-03T14:34:47Z</time>
      </trkpt>
      <trkpt lat="48.05103" lon="6.97734">
        <ele>923</ele>
        <time>2020-08-03T14:34:59Z</time>
      </trkpt>
      <trkpt lat="48.05109" lon="6.97738">
        <ele>921</ele>
        <time>2020-08-03T14:35:07Z</time>
      </trkpt>
      <trkpt lat="48.05113" lon="6.97749">
        <ele>916</ele>
        <time>2020-08-03T14:35:19Z</time>
      </trkpt>
      <trkpt lat="48.05122" lon="6.9775">
        <ele>916</ele>
        <time>2020-08-03T14:35:31Z</time>
      </trkpt>
      <trkpt lat="48.05144" lon="6.9778">
        <ele>907</ele>
        <time>2020-08-03T14:36:10Z</time>
      </trkpt>
      <trkpt lat="48.05152" lon="6.97783">
        <ele>905</ele>
        <time>2020-08-03T14:36:21Z</time>
      </trkpt>
      <trkpt lat="48.05172" lon="6.97802">
        <ele>898</ele>
        <time>2020-08-03T14:36:53Z</time>
      </trkpt>
      <trkpt lat="48.05178" lon="6.97806">
        <ele>897</ele>
        <time>2020-08-03T14:37:02Z</time>
      </trkpt>
      <trkpt lat="48.05196" lon="6.97806">
        <ele>896</ele>
        <time>2020-08-03T14:37:26Z</time>
      </trkpt>
      <trkpt lat="48.05219" lon="6.97828">
        <ele>889</ele>
        <time>2020-08-03T14:38:02Z</time>
      </trkpt>
      <trkpt lat="48.05231" lon="6.97831">
        <ele>887</ele>
        <time>2020-08-03T14:38:18Z</time>
      </trkpt>
      <trkpt lat="48.05251" lon="6.97849">
        <ele>882</ele>
        <time>2020-08-03T14:38:50Z</time>
      </trkpt>
      <trkpt lat="48.05278" lon="6.97891">
        <ele>873</ele>
        <time>2020-08-03T14:39:42Z</time>
      </trkpt>
      <trkpt lat="48.05292" lon="6.9794">
        <ele>863</ele>
        <time>2020-08-03T14:40:29Z</time>
      </trkpt>
      <trkpt lat="48.05299" lon="6.97936">
        <ele>863</ele>
        <time>2020-08-03T14:40:39Z</time>
      </trkpt>
      <trkpt lat="48.05305" lon="6.97947">
        <ele>861</ele>
        <time>2020-08-03T14:40:52Z</time>
      </trkpt>
      <trkpt lat="48.05308" lon="6.97983">
        <ele>853</ele>
        <time>2020-08-03T14:41:24Z</time>
      </trkpt>
      <trkpt lat="48.05324" lon="6.98014">
        <ele>846</ele>
        <time>2020-08-03T14:41:59Z</time>
      </trkpt>
      <trkpt lat="48.05329" lon="6.98037">
        <ele>841</ele>
        <time>2020-08-03T14:42:21Z</time>
      </trkpt>
      <trkpt lat="48.0533" lon="6.98056">
        <ele>838</ele>
        <time>2020-08-03T14:42:38Z</time>
      </trkpt>
      <trkpt lat="48.05325" lon="6.98067">
        <ele>837</ele>
        <time>2020-08-03T14:42:50Z</time>
      </trkpt>
      <trkpt lat="48.05329" lon="6.9807">
        <ele>836</ele>
        <time>2020-08-03T14:42:56Z</time>
      </trkpt>
      <trkpt lat="48.0534" lon="6.98107">
        <ele>832</ele>
        <time>2020-08-03T14:43:32Z</time>
      </trkpt>
      <trkpt lat="48.05351" lon="6.98123">
        <ele>831</ele>
        <time>2020-08-03T14:43:52Z</time>
      </trkpt>
      <trkpt lat="48.05343" lon="6.98142">
        <ele>831</ele>
        <time>2020-08-03T14:44:12Z</time>
      </trkpt>
      <trkpt lat="48.05348" lon="6.98176">
        <ele>829</ele>
        <time>2020-08-03T14:44:43Z</time>
      </trkpt>
      <trkpt lat="48.05355" lon="6.98194">
        <ele>826</ele>
        <time>2020-08-03T14:45:02Z</time>
      </trkpt>
      <trkpt lat="48.05364" lon="6.98198">
        <ele>824</ele>
        <time>2020-08-03T14:45:14Z</time>
      </trkpt>
      <trkpt lat="48.05386" lon="6.98219">
        <ele>817</ele>
        <time>2020-08-03T14:45:49Z</time>
      </trkpt>
      <trkpt lat="48.0539" lon="6.98227">
        <ele>815</ele>
        <time>2020-08-03T14:45:58Z</time>
      </trkpt>
      <trkpt lat="48.05387" lon="6.98237">
        <ele>814</ele>
        <time>2020-08-03T14:46:08Z</time>
      </trkpt>
      <trkpt lat="48.05413" lon="6.9827">
        <ele>805</ele>
        <time>2020-08-03T14:46:53Z</time>
      </trkpt>
      <trkpt lat="48.05416" lon="6.98291">
        <ele>802</ele>
        <time>2020-08-03T14:47:12Z</time>
      </trkpt>
      <trkpt lat="48.0543" lon="6.98296">
        <ele>800</ele>
        <time>2020-08-03T14:47:32Z</time>
      </trkpt>
      <trkpt lat="48.05436" lon="6.98308">
        <ele>798</ele>
        <time>2020-08-03T14:47:45Z</time>
      </trkpt>
      <trkpt lat="48.05443" lon="6.98312">
        <ele>796</ele>
        <time>2020-08-03T14:47:55Z</time>
      </trkpt>
      <trkpt lat="48.05449" lon="6.98305">
        <ele>797</ele>
        <time>2020-08-03T14:48:05Z</time>
      </trkpt>
      <trkpt lat="48.05473" lon="6.98336">
        <ele>789</ele>
        <time>2020-08-03T14:48:48Z</time>
      </trkpt>
      <trkpt lat="48.05471" lon="6.98363">
        <ele>788</ele>
        <time>2020-08-03T14:49:12Z</time>
      </trkpt>
      <trkpt lat="48.0548" lon="6.98383">
        <ele>786</ele>
        <time>2020-08-03T14:49:33Z</time>
      </trkpt>
      <trkpt lat="48.05484" lon="6.98418">
        <ele>783</ele>
        <time>2020-08-03T14:50:05Z</time>
      </trkpt>
      <trkpt lat="48.05482" lon="6.98437">
        <ele>782</ele>
        <time>2020-08-03T14:50:22Z</time>
      </trkpt>
      <trkpt lat="48.05486" lon="6.98445">
        <ele>782</ele>
        <time>2020-08-03T14:50:31Z</time>
      </trkpt>
      <trkpt lat="48.05472" lon="6.98459">
        <ele>782</ele>
        <time>2020-08-03T14:50:53Z</time>
      </trkpt>
      <trkpt lat="48.05468" lon="6.98531">
        <ele>782</ele>
        <time>2020-08-03T14:51:58Z</time>
      </trkpt>
      <trkpt lat="48.05487" lon="6.9862">
        <ele>784</ele>
        <time>2020-08-03T14:53:21Z</time>
      </trkpt>
      <trkpt lat="48.05507" lon="6.9865">
        <ele>785</ele>
        <time>2020-08-03T14:53:59Z</time>
      </trkpt>
      <trkpt lat="48.05519" lon="6.98682">
        <ele>788</ele>
        <time>2020-08-03T14:54:32Z</time>
      </trkpt>
      <trkpt lat="48.05519" lon="6.98687">
        <ele>788</ele>
        <time>2020-08-03T14:54:36Z</time>
      </trkpt>
      <trkpt lat="48.05508" lon="6.98689">
        <ele>789</ele>
        <time>2020-08-03T14:54:51Z</time>
      </trkpt>
      <trkpt lat="48.05498" lon="6.98698">
        <ele>790</ele>
        <time>2020-08-03T14:55:07Z</time>
      </trkpt>
      <trkpt lat="48.05476" lon="6.98699">
        <ele>791</ele>
        <time>2020-08-03T14:55:36Z</time>
      </trkpt>
      <trkpt lat="48.05461" lon="6.98692">
        <ele>790</ele>
        <time>2020-08-03T14:55:57Z</time>
      </trkpt>
      <trkpt lat="48.05412" lon="6.98653">
        <ele>789</ele>
        <time>2020-08-03T14:57:11Z</time>
      </trkpt>
      <trkpt lat="48.05398" lon="6.98651">
        <ele>790</ele>
        <time>2020-08-03T14:57:30Z</time>
      </trkpt>
      <trkpt lat="48.05388" lon="6.98655">
        <ele>791</ele>
        <time>2020-08-03T14:57:44Z</time>
      </trkpt>
      <trkpt lat="48.05366" lon="6.98751">
        <ele>803</ele>
        <time>2020-08-03T14:59:14Z</time>
      </trkpt>
      <trkpt lat="48.05348" lon="6.98772">
        <ele>805</ele>
        <time>2020-08-03T14:59:45Z</time>
      </trkpt>
      <trkpt lat="48.05327" lon="6.98811">
        <ele>809</ele>
        <time>2020-08-03T15:00:29Z</time>
      </trkpt>
      <trkpt lat="48.05288" lon="6.98842">
        <ele>815</ele>
        <time>2020-08-03T15:01:28Z</time>
      </trkpt>
      <trkpt lat="48.0528" lon="6.98867">
        <ele>818</ele>
        <time>2020-08-03T15:01:53Z</time>
      </trkpt>
      <trkpt lat="48.05283" lon="6.9889">
        <ele>820</ele>
        <time>2020-08-03T15:02:14Z</time>
      </trkpt>
      <trkpt lat="48.05273" lon="6.989">
        <ele>822</ele>
        <time>2020-08-03T15:02:30Z</time>
      </trkpt>
      <trkpt lat="48.05274" lon="6.98909">
        <ele>823</ele>
        <time>2020-08-03T15:02:38Z</time>
      </trkpt>
      <trkpt lat="48.05268" lon="6.98914">
        <ele>824</ele>
        <time>2020-08-03T15:02:47Z</time>
      </trkpt>
      <trkpt lat="48.05281" lon="6.98921">
        <ele>824</ele>
        <time>2020-08-03T15:03:06Z</time>
      </trkpt>
      <trkpt lat="48.05281" lon="6.98952">
        <ele>829</ele>
        <time>2020-08-03T15:03:33Z</time>
      </trkpt>
      <trkpt lat="48.05289" lon="6.98959">
        <ele>830</ele>
        <time>2020-08-03T15:03:46Z</time>
      </trkpt>
      <trkpt lat="48.05286" lon="6.98981">
        <ele>834</ele>
        <time>2020-08-03T15:04:06Z</time>
      </trkpt>
      <trkpt lat="48.05299" lon="6.99004">
        <ele>838</ele>
        <time>2020-08-03T15:04:33Z</time>
      </trkpt>
      <trkpt lat="48.05303" lon="6.99052">
        <ele>850</ele>
        <time>2020-08-03T15:05:16Z</time>
      </trkpt>
      <trkpt lat="48.05305" lon="6.99034">
        <ele>846</ele>
        <time>2020-08-03T15:05:32Z</time>
      </trkpt>
      <trkpt lat="48.0531" lon="6.99031">
        <ele>845</ele>
        <time>2020-08-03T15:05:39Z</time>
      </trkpt>
      <trkpt lat="48.05311" lon="6.99034">
        <ele>845</ele>
        <time>2020-08-03T15:05:42Z</time>
      </trkpt>
      <trkpt lat="48.05308" lon="6.99042">
        <ele>847</ele>
        <time>2020-08-03T15:05:50Z</time>
      </trkpt>
      <trkpt lat="48.05312" lon="6.99052">
        <ele>850</ele>
        <time>2020-08-03T15:06:01Z</time>
      </trkpt>
      <trkpt lat="48.05307" lon="6.99075">
        <ele>855</ele>
        <time>2020-08-03T15:06:22Z</time>
      </trkpt>
      <trkpt lat="48.0531" lon="6.99089">
        <ele>858</ele>
        <time>2020-08-03T15:06:35Z</time>
      </trkpt>
      <trkpt lat="48.05292" lon="6.99113">
        <ele>863</ele>
        <time>2020-08-03T15:07:08Z</time>
      </trkpt>
      <trkpt lat="48.05292" lon="6.99109">
        <ele>863</ele>
        <time>2020-08-03T15:07:11Z</time>
      </trkpt>
      <trkpt lat="48.05307" lon="6.991">
        <ele>860</ele>
        <time>2020-08-03T15:07:33Z</time>
      </trkpt>
      <trkpt lat="48.05306" lon="6.99097">
        <ele>860</ele>
        <time>2020-08-03T15:07:36Z</time>
      </trkpt>
      <trkpt lat="48.05301" lon="6.99096">
        <ele>860</ele>
        <time>2020-08-03T15:07:42Z</time>
      </trkpt>
      <trkpt lat="48.05301" lon="6.99102">
        <ele>861</ele>
        <time>2020-08-03T15:07:48Z</time>
      </trkpt>
      <trkpt lat="48.05284" lon="6.99095">
        <ele>860</ele>
        <time>2020-08-03T15:08:11Z</time>
      </trkpt>
      <trkpt lat="48.05315" lon="6.99095">
        <ele>859</ele>
        <time>2020-08-03T15:08:53Z</time>
      </trkpt>
      <trkpt lat="48.05306" lon="6.99087">
        <ele>858</ele>
        <time>2020-08-03T15:09:07Z</time>
      </trkpt>
      <trkpt lat="48.05305" lon="6.9909">
        <ele>859</ele>
        <time>2020-08-03T15:09:10Z</time>
      </trkpt>
      <trkpt lat="48.05319" lon="6.99073">
        <ele>854</ele>
        <time>2020-08-03T15:09:34Z</time>
      </trkpt>
      <trkpt lat="48.05312" lon="6.99051">
        <ele>849</ele>
        <time>2020-08-03T15:09:55Z</time>
      </trkpt>
      <trkpt lat="48.05306" lon="6.99003">
        <ele>838</ele>
        <time>2020-08-03T15:10:39Z</time>
      </trkpt>
      <trkpt lat="48.05299" lon="6.98997">
        <ele>837</ele>
        <time>2020-08-03T15:10:50Z</time>
      </trkpt>
      <trkpt lat="48.05298" lon="6.98983">
        <ele>834</ele>
        <time>2020-08-03T15:11:02Z</time>
      </trkpt>
      <trkpt lat="48.05316" lon="6.98927">
        <ele>823</ele>
        <time>2020-08-03T15:11:58Z</time>
      </trkpt>
      <trkpt lat="48.05324" lon="6.98918">
        <ele>821</ele>
        <time>2020-08-03T15:12:11Z</time>
      </trkpt>
      <trkpt lat="48.05332" lon="6.98897">
        <ele>818</ele>
        <time>2020-08-03T15:12:33Z</time>
      </trkpt>
      <trkpt lat="48.05341" lon="6.98896">
        <ele>818</ele>
        <time>2020-08-03T15:12:45Z</time>
      </trkpt>
      <trkpt lat="48.05348" lon="6.98888">
        <ele>817</ele>
        <time>2020-08-03T15:12:56Z</time>
      </trkpt>
      <trkpt lat="48.05357" lon="6.98889">
        <ele>817</ele>
        <time>2020-08-03T15:13:08Z</time>
      </trkpt>
      <trkpt lat="48.05377" lon="6.98882">
        <ele>816</ele>
        <time>2020-08-03T15:13:36Z</time>
      </trkpt>
      <trkpt lat="48.05388" lon="6.9887">
        <ele>814</ele>
        <time>2020-08-03T15:13:54Z</time>
      </trkpt>
      <trkpt lat="48.05412" lon="6.98857">
        <ele>812</ele>
        <time>2020-08-03T15:14:28Z</time>
      </trkpt>
      <trkpt lat="48.05427" lon="6.98854">
        <ele>812</ele>
        <time>2020-08-03T15:14:48Z</time>
      </trkpt>
      <trkpt lat="48.0544" lon="6.98844">
        <ele>811</ele>
        <time>2020-08-03T15:15:08Z</time>
      </trkpt>
      <trkpt lat="48.05477" lon="6.98793">
        <ele>803</ele>
        <time>2020-08-03T15:16:15Z</time>
      </trkpt>
      <trkpt lat="48.05492" lon="6.9878">
        <ele>800</ele>
        <time>2020-08-03T15:16:38Z</time>
      </trkpt>
      <trkpt lat="48.05494" lon="6.98769">
        <ele>798</ele>
        <time>2020-08-03T15:16:48Z</time>
      </trkpt>
      <trkpt lat="48.05505" lon="6.98762">
        <ele>797</ele>
        <time>2020-08-03T15:17:04Z</time>
      </trkpt>
      <trkpt lat="48.05541" lon="6.98754">
        <ele>796</ele>
        <time>2020-08-03T15:17:53Z</time>
      </trkpt>
      <trkpt lat="48.05583" lon="6.98754">
        <ele>798</ele>
        <time>2020-08-03T15:18:49Z</time>
      </trkpt>
      <trkpt lat="48.05619" lon="6.98737">
        <ele>798</ele>
        <time>2020-08-03T15:19:39Z</time>
      </trkpt>
      <trkpt lat="48.05664" lon="6.98698">
        <ele>793</ele>
        <time>2020-08-03T15:20:49Z</time>
      </trkpt>
      <trkpt lat="48.05696" lon="6.98656">
        <ele>786</ele>
        <time>2020-08-03T15:21:45Z</time>
      </trkpt>
      <trkpt lat="48.05774" lon="6.98577">
        <ele>786</ele>
        <time>2020-08-03T15:23:51Z</time>
      </trkpt>
      <trkpt lat="48.05827" lon="6.98538">
        <ele>789</ele>
        <time>2020-08-03T15:25:10Z</time>
      </trkpt>
      <trkpt lat="48.05837" lon="6.98521">
        <ele>789</ele>
        <time>2020-08-03T15:25:30Z</time>
      </trkpt>
      <trkpt lat="48.05872" lon="6.98481">
        <ele>795</ele>
        <time>2020-08-03T15:26:29Z</time>
      </trkpt>
      <trkpt lat="48.05877" lon="6.98473">
        <ele>796</ele>
        <time>2020-08-03T15:26:39Z</time>
      </trkpt>
      <trkpt lat="48.05876" lon="6.98467">
        <ele>796</ele>
        <time>2020-08-03T15:26:44Z</time>
      </trkpt>
      <trkpt lat="48.05886" lon="6.9846">
        <ele>797</ele>
        <time>2020-08-03T15:26:59Z</time>
      </trkpt>
      <trkpt lat="48.05905" lon="6.98431">
        <ele>799</ele>
        <time>2020-08-03T15:27:35Z</time>
      </trkpt>
      <trkpt lat="48.059" lon="6.98426">
        <ele>797</ele>
        <time>2020-08-03T15:27:43Z</time>
      </trkpt>
      <trkpt lat="48.05913" lon="6.98352">
        <ele>797</ele>
        <time>2020-08-03T15:28:51Z</time>
      </trkpt>
      <trkpt lat="48.05909" lon="6.98335">
        <ele>796</ele>
        <time>2020-08-03T15:29:07Z</time>
      </trkpt>
      <trkpt lat="48.05895" lon="6.98315">
        <ele>795</ele>
        <time>2020-08-03T15:29:33Z</time>
      </trkpt>
      <trkpt lat="48.05891" lon="6.98301">
        <ele>794</ele>
        <time>2020-08-03T15:29:47Z</time>
      </trkpt>
      <trkpt lat="48.05875" lon="6.98286">
        <ele>793</ele>
        <time>2020-08-03T15:30:12Z</time>
      </trkpt>
      <trkpt lat="48.05867" lon="6.98266">
        <ele>793</ele>
        <time>2020-08-03T15:30:33Z</time>
      </trkpt>
      <trkpt lat="48.05864" lon="6.98273">
        <ele>793</ele>
        <time>2020-08-03T15:30:40Z</time>
      </trkpt>
      <trkpt lat="48.05869" lon="6.98283">
        <ele>793</ele>
        <time>2020-08-03T15:30:51Z</time>
      </trkpt>
      <trkpt lat="48.05874" lon="6.98243">
        <ele>792</ele>
        <time>2020-08-03T15:31:28Z</time>
      </trkpt>
      <trkpt lat="48.05871" lon="6.98251">
        <ele>793</ele>
        <time>2020-08-03T15:31:36Z</time>
      </trkpt>
      <trkpt lat="48.05865" lon="6.98252">
        <ele>793</ele>
        <time>2020-08-03T15:31:44Z</time>
      </trkpt>
      <trkpt lat="48.05879" lon="6.9827">
        <ele>793</ele>
        <time>2020-08-03T15:32:09Z</time>
      </trkpt>
      <trkpt lat="48.05875" lon="6.98272">
        <ele>793</ele>
        <time>2020-08-03T15:32:14Z</time>
      </trkpt>
      <trkpt lat="48.0588" lon="6.98279">
        <ele>793</ele>
        <time>2020-08-03T15:32:23Z</time>
      </trkpt>
      <trkpt lat="48.05884" lon="6.98317">
        <ele>794</ele>
        <time>2020-08-03T15:32:58Z</time>
      </trkpt>
      <trkpt lat="48.05882" lon="6.9829">
        <ele>794</ele>
        <time>2020-08-03T15:33:22Z</time>
      </trkpt>
      <trkpt lat="48.05877" lon="6.98279">
        <ele>793</ele>
        <time>2020-08-03T15:33:34Z</time>
      </trkpt>
      <trkpt lat="48.05853" lon="6.9825">
        <ele>792</ele>
        <time>2020-08-03T15:34:15Z</time>
      </trkpt>
      <trkpt lat="48.05853" lon="6.9824">
        <ele>792</ele>
        <time>2020-08-03T15:34:24Z</time>
      </trkpt>
      <trkpt lat="48.05878" lon="6.98242">
        <ele>792</ele>
        <time>2020-08-03T15:34:57Z</time>
      </trkpt>
      <trkpt lat="48.05882" lon="6.98239">
        <ele>792</ele>
        <time>2020-08-03T15:35:03Z</time>
      </trkpt>
      <trkpt lat="48.05883" lon="6.98224">
        <ele>791</ele>
        <time>2020-08-03T15:35:17Z</time>
      </trkpt>
      <trkpt lat="48.05884" lon="6.98227">
        <ele>791</ele>
        <time>2020-08-03T15:35:20Z</time>
      </trkpt>
      <trkpt lat="48.05887" lon="6.98224">
        <ele>791</ele>
        <time>2020-08-03T15:35:24Z</time>
      </trkpt>
      <trkpt lat="48.05879" lon="6.9822">
        <ele>791</ele>
        <time>2020-08-03T15:35:36Z</time>
      </trkpt>
      <trkpt lat="48.05871" lon="6.98199">
        <ele>789</ele>
        <time>2020-08-03T15:35:57Z</time>
      </trkpt>
      <trkpt lat="48.05858" lon="6.98182">
        <ele>789</ele>
        <time>2020-08-03T15:36:20Z</time>
      </trkpt>
      <trkpt lat="48.05842" lon="6.98201">
        <ele>791</ele>
        <time>2020-08-03T15:36:48Z</time>
      </trkpt>
      <trkpt lat="48.05828" lon="6.98196">
        <ele>792</ele>
        <time>2020-08-03T15:37:07Z</time>
      </trkpt>
      <trkpt lat="48.05822" lon="6.98185">
        <ele>793</ele>
        <time>2020-08-03T15:37:19Z</time>
      </trkpt>
      <trkpt lat="48.05825" lon="6.98197">
        <ele>793</ele>
        <time>2020-08-03T15:37:31Z</time>
      </trkpt>
      <trkpt lat="48.05817" lon="6.9821">
        <ele>794</ele>
        <time>2020-08-03T15:37:47Z</time>
      </trkpt>
      <trkpt lat="48.05804" lon="6.98216">
        <ele>796</ele>
        <time>2020-08-03T15:38:05Z</time>
      </trkpt>
      <trkpt lat="48.0579" lon="6.98218">
        <ele>798</ele>
        <time>2020-08-03T15:38:24Z</time>
      </trkpt>
      <trkpt lat="48.05789" lon="6.98215">
        <ele>799</ele>
        <time>2020-08-03T15:38:27Z</time>
      </trkpt>
      <trkpt lat="48.05793" lon="6.98191">
        <ele>800</ele>
        <time>2020-08-03T15:38:49Z</time>
      </trkpt>
      <trkpt lat="48.05805" lon="6.98193">
        <ele>797</ele>
        <time>2020-08-03T15:39:05Z</time>
      </trkpt>
      <trkpt lat="48.05811" lon="6.9819">
        <ele>796</ele>
        <time>2020-08-03T15:39:13Z</time>
      </trkpt>
      <trkpt lat="48.05818" lon="6.98192">
        <ele>794</ele>
        <time>2020-08-03T15:39:23Z</time>
      </trkpt>
      <trkpt lat="48.05819" lon="6.98189">
        <ele>794</ele>
        <time>2020-08-03T15:39:26Z</time>
      </trkpt>
      <trkpt lat="48.05814" lon="6.98169">
        <ele>796</ele>
        <time>2020-08-03T15:39:45Z</time>
      </trkpt>
      <trkpt lat="48.05819" lon="6.98161">
        <ele>794</ele>
        <time>2020-08-03T15:39:55Z</time>
      </trkpt>
      <trkpt lat="48.05813" lon="6.98158">
        <ele>796</ele>
        <time>2020-08-03T15:40:03Z</time>
      </trkpt>
      <trkpt lat="48.05819" lon="6.98142">
        <ele>793</ele>
        <time>2020-08-03T15:40:19Z</time>
      </trkpt>
      <trkpt lat="48.05804" lon="6.98111">
        <ele>799</ele>
        <time>2020-08-03T15:40:53Z</time>
      </trkpt>
      <trkpt lat="48.05807" lon="6.98087">
        <ele>797</ele>
        <time>2020-08-03T15:41:15Z</time>
      </trkpt>
      <trkpt lat="48.05803" lon="6.98043">
        <ele>797</ele>
        <time>2020-08-03T15:41:55Z</time>
      </trkpt>
      <trkpt lat="48.05807" lon="6.9802">
        <ele>793</ele>
        <time>2020-08-03T15:42:16Z</time>
      </trkpt>
      <trkpt lat="48.05812" lon="6.98017">
        <ele>790</ele>
        <time>2020-08-03T15:42:23Z</time>
      </trkpt>
      <trkpt lat="48.05814" lon="6.98023">
        <ele>789</ele>
        <time>2020-08-03T15:42:29Z</time>
      </trkpt>
      <trkpt lat="48.05807" lon="6.98047">
        <ele>795</ele>
        <time>2020-08-03T15:42:53Z</time>
      </trkpt>
      <trkpt lat="48.05811" lon="6.98048">
        <ele>793</ele>
        <time>2020-08-03T15:42:58Z</time>
      </trkpt>
      <trkpt lat="48.05808" lon="6.98021">
        <ele>793</ele>
        <time>2020-08-03T15:43:22Z</time>
      </trkpt>
      <trkpt lat="48.05814" lon="6.98005">
        <ele>788</ele>
        <time>2020-08-03T15:43:39Z</time>
      </trkpt>
      <trkpt lat="48.05818" lon="6.97956">
        <ele>788</ele>
        <time>2020-08-03T15:44:23Z</time>
      </trkpt>
      <trkpt lat="48.05836" lon="6.97919">
        <ele>781</ele>
        <time>2020-08-03T15:45:04Z</time>
      </trkpt>
      <trkpt lat="48.05845" lon="6.97889">
        <ele>782</ele>
        <time>2020-08-03T15:45:33Z</time>
      </trkpt>
      <trkpt lat="48.05845" lon="6.97846">
        <ele>788</ele>
        <time>2020-08-03T15:46:11Z</time>
      </trkpt>
      <trkpt lat="48.05838" lon="6.97827">
        <ele>794</ele>
        <time>2020-08-03T15:46:31Z</time>
      </trkpt>
      <trkpt lat="48.05839" lon="6.9782">
        <ele>795</ele>
        <time>2020-08-03T15:46:37Z</time>
      </trkpt>
      <trkpt lat="48.05856" lon="6.97805">
        <ele>792</ele>
        <time>2020-08-03T15:47:03Z</time>
      </trkpt>
      <trkpt lat="48.05867" lon="6.97784">
        <ele>792</ele>
        <time>2020-08-03T15:47:27Z</time>
      </trkpt>
      <trkpt lat="48.05886" lon="6.97765">
        <ele>786</ele>
        <time>2020-08-03T15:47:58Z</time>
      </trkpt>
      <trkpt lat="48.05896" lon="6.97741">
        <ele>786</ele>
        <time>2020-08-03T15:48:23Z</time>
      </trkpt>
      <trkpt lat="48.05919" lon="6.97708">
        <ele>780</ele>
        <time>2020-08-03T15:49:05Z</time>
      </trkpt>
      <trkpt lat="48.05923" lon="6.97695">
        <ele>781</ele>
        <time>2020-08-03T15:49:18Z</time>
      </trkpt>
      <trkpt lat="48.05936" lon="6.97686">
        <ele>779</ele>
        <time>2020-08-03T15:49:37Z</time>
      </trkpt>
      <trkpt lat="48.05947" lon="6.97664">
        <ele>778</ele>
        <time>2020-08-03T15:50:02Z</time>
      </trkpt>
      <trkpt lat="48.05946" lon="6.97641">
        <ele>780</ele>
        <time>2020-08-03T15:50:22Z</time>
      </trkpt>
      <trkpt lat="48.05957" lon="6.97617">
        <ele>777</ele>
        <time>2020-08-03T15:50:48Z</time>
      </trkpt>
      <trkpt lat="48.05959" lon="6.97589">
        <ele>777</ele>
        <time>2020-08-03T15:51:13Z</time>
      </trkpt>
      <trkpt lat="48.05967" lon="6.97556">
        <ele>775</ele>
        <time>2020-08-03T15:51:45Z</time>
      </trkpt>
      <trkpt lat="48.05965" lon="6.97498">
        <ele>778</ele>
        <time>2020-08-03T15:52:37Z</time>
      </trkpt>
      <trkpt lat="48.0596" lon="6.97482">
        <ele>782</ele>
        <time>2020-08-03T15:52:52Z</time>
      </trkpt>
      <trkpt lat="48.05964" lon="6.97474">
        <ele>780</ele>
        <time>2020-08-03T15:53:01Z</time>
      </trkpt>
      <trkpt lat="48.05963" lon="6.97451">
        <ele>782</ele>
        <time>2020-08-03T15:53:22Z</time>
      </trkpt>
      <trkpt lat="48.05974" lon="6.97383">
        <ele>780</ele>
        <time>2020-08-03T15:54:24Z</time>
      </trkpt>
      <trkpt lat="48.05983" lon="6.97361">
        <ele>777</ele>
        <time>2020-08-03T15:54:47Z</time>
      </trkpt>
      <trkpt lat="48.05985" lon="6.97363">
        <ele>776</ele>
        <time>2020-08-03T15:54:50Z</time>
      </trkpt>
      <trkpt lat="48.05979" lon="6.97345">
        <ele>781</ele>
        <time>2020-08-03T15:55:08Z</time>
      </trkpt>
      <trkpt lat="48.05978" lon="6.97318">
        <ele>782</ele>
        <time>2020-08-03T15:55:32Z</time>
      </trkpt>
      <trkpt lat="48.05962" lon="6.97274">
        <ele>789</ele>
        <time>2020-08-03T15:56:17Z</time>
      </trkpt>
      <trkpt lat="48.05966" lon="6.97252">
        <ele>787</ele>
        <time>2020-08-03T15:56:37Z</time>
      </trkpt>
      <trkpt lat="48.05974" lon="6.97236">
        <ele>783</ele>
        <time>2020-08-03T15:56:55Z</time>
      </trkpt>
      <trkpt lat="48.05983" lon="6.97201">
        <ele>781</ele>
        <time>2020-08-03T15:57:29Z</time>
      </trkpt>
      <trkpt lat="48.06018" lon="6.97155">
        <ele>771</ele>
        <time>2020-08-03T15:58:31Z</time>
      </trkpt>
      <trkpt lat="48.06024" lon="6.97136">
        <ele>771</ele>
        <time>2020-08-03T15:58:50Z</time>
      </trkpt>
      <trkpt lat="48.06025" lon="6.97102">
        <ele>773</ele>
        <time>2020-08-03T15:59:20Z</time>
      </trkpt>
      <trkpt lat="48.0604" lon="6.97096">
        <ele>769</ele>
        <time>2020-08-03T15:59:41Z</time>
      </trkpt>
      <trkpt lat="48.06078" lon="6.97041">
        <ele>757</ele>
        <time>2020-08-03T16:00:51Z</time>
      </trkpt>
      <trkpt lat="48.06075" lon="6.97015">
        <ele>757</ele>
        <time>2020-08-03T16:01:15Z</time>
      </trkpt>
      <trkpt lat="48.06081" lon="6.96953">
        <ele>758</ele>
        <time>2020-08-03T16:02:11Z</time>
      </trkpt>
      <trkpt lat="48.06089" lon="6.96932">
        <ele>758</ele>
        <time>2020-08-03T16:02:32Z</time>
      </trkpt>
      <trkpt lat="48.06107" lon="6.96911">
        <ele>757</ele>
        <time>2020-08-03T16:03:03Z</time>
      </trkpt>
      <trkpt lat="48.06112" lon="6.96888">
        <ele>757</ele>
        <time>2020-08-03T16:03:24Z</time>
      </trkpt>
      <trkpt lat="48.06111" lon="6.9688">
        <ele>757</ele>
        <time>2020-08-03T16:03:31Z</time>
      </trkpt>
      <trkpt lat="48.06093" lon="6.96863">
        <ele>761</ele>
        <time>2020-08-03T16:04:00Z</time>
      </trkpt>
      <trkpt lat="48.06083" lon="6.96822">
        <ele>764</ele>
        <time>2020-08-03T16:04:39Z</time>
      </trkpt>
      <trkpt lat="48.06095" lon="6.96752">
        <ele>761</ele>
        <time>2020-08-03T16:05:43Z</time>
      </trkpt>
      <trkpt lat="48.0609" lon="6.96708">
        <ele>762</ele>
        <time>2020-08-03T16:06:23Z</time>
      </trkpt>
      <trkpt lat="48.06099" lon="6.96694">
        <ele>759</ele>
        <time>2020-08-03T16:06:40Z</time>
      </trkpt>
      <trkpt lat="48.06093" lon="6.96612">
        <ele>759</ele>
        <time>2020-08-03T16:07:54Z</time>
      </trkpt>
      <trkpt lat="48.06096" lon="6.96561">
        <ele>757</ele>
        <time>2020-08-03T16:08:40Z</time>
      </trkpt>
      <trkpt lat="48.06107" lon="6.96516">
        <ele>754</ele>
        <time>2020-08-03T16:09:22Z</time>
      </trkpt>
      <trkpt lat="48.0611" lon="6.96433">
        <ele>755</ele>
        <time>2020-08-03T16:10:36Z</time>
      </trkpt>
      <trkpt lat="48.06115" lon="6.964">
        <ele>756</ele>
        <time>2020-08-03T16:11:07Z</time>
      </trkpt>
      <trkpt lat="48.06124" lon="6.96379">
        <ele>756</ele>
        <time>2020-08-03T16:11:29Z</time>
      </trkpt>
      <trkpt lat="48.06146" lon="6.96359">
        <ele>751</ele>
        <time>2020-08-03T16:12:03Z</time>
      </trkpt>
      <trkpt lat="48.06161" lon="6.96352">
        <ele>748</ele>
        <time>2020-08-03T16:12:24Z</time>
      </trkpt>
      <trkpt lat="48.06177" lon="6.96361">
        <ele>744</ele>
        <time>2020-08-03T16:12:47Z</time>
      </trkpt>
      <trkpt lat="48.06193" lon="6.96355">
        <ele>743</ele>
        <time>2020-08-03T16:13:09Z</time>
      </trkpt>
      <trkpt lat="48.06202" lon="6.96273">
        <ele>745</ele>
        <time>2020-08-03T16:14:23Z</time>
      </trkpt>
      <trkpt lat="48.06233" lon="6.96157">
        <ele>743</ele>
        <time>2020-08-03T16:16:15Z</time>
      </trkpt>
      <trkpt lat="48.06254" lon="6.96121">
        <ele>740</ele>
        <time>2020-08-03T16:16:57Z</time>
      </trkpt>
      <trkpt lat="48.06288" lon="6.9608">
        <ele>739</ele>
        <time>2020-08-03T16:17:55Z</time>
      </trkpt>
      <trkpt lat="48.06293" lon="6.96067">
        <ele>739</ele>
        <time>2020-08-03T16:18:09Z</time>
      </trkpt>
      <trkpt lat="48.06318" lon="6.96032">
        <ele>738</ele>
        <time>2020-08-03T16:18:55Z</time>
      </trkpt>
      <trkpt lat="48.06347" lon="6.95962">
        <ele>738</ele>
        <time>2020-08-03T16:20:08Z</time>
      </trkpt>
      <trkpt lat="48.06357" lon="6.95891">
        <ele>737</ele>
        <time>2020-08-03T16:21:13Z</time>
      </trkpt>
      <trkpt lat="48.06354" lon="6.95841">
        <ele>737</ele>
        <time>2020-08-03T16:21:57Z</time>
      </trkpt>
      <trkpt lat="48.06345" lon="6.95797">
        <ele>739</ele>
        <time>2020-08-03T16:22:39Z</time>
      </trkpt>
      <trkpt lat="48.06334" lon="6.95695">
        <ele>739</ele>
        <time>2020-08-03T16:24:11Z</time>
      </trkpt>
      <trkpt lat="48.06324" lon="6.95648">
        <ele>742</ele>
        <time>2020-08-03T16:24:55Z</time>
      </trkpt>
      <trkpt lat="48.06311" lon="6.95627">
        <ele>748</ele>
        <time>2020-08-03T16:25:20Z</time>
      </trkpt>
      <trkpt lat="48.06311" lon="6.95613">
        <ele>749</ele>
        <time>2020-08-03T16:25:33Z</time>
      </trkpt>
      <trkpt lat="48.06323" lon="6.95549">
        <ele>749</ele>
        <time>2020-08-03T16:26:32Z</time>
      </trkpt>
      <trkpt lat="48.06326" lon="6.95494">
        <ele>752</ele>
        <time>2020-08-03T16:27:21Z</time>
      </trkpt>
      <trkpt lat="48.06343" lon="6.95427">
        <ele>761</ele>
        <time>2020-08-03T16:28:25Z</time>
      </trkpt>
      <trkpt lat="48.06399" lon="6.95335">
        <ele>756</ele>
        <time>2020-08-03T16:30:16Z</time>
      </trkpt>
    </trkseg>
  </trk>
</gpx>